Etihad Airways Virtual Airport Information Service

Abu Dhabi International Airport

ICAO: OMAA Country: United Arab Emirates
Latitude: 24.433 Longitude: 54.6511
Latest Arrival : ETD42 (EIDW-OMAA) Latest Departure : ETD45 (1) (OMAA-EIDW)


WX CaptureLIVE
Data provided by noaa.gov | Recorded at 04:44:18

METAR : OMAA 170400Z VRB03KT 8000 NSC 32/27 Q1002 NOSIG

TAF : OMAA 162300Z 1700/1806 04006KT 8000 NSC BECMG 1700/1702 14006KT PROB30 1701/1704 4000 HZ BECMG 1707/1709 32015KT BECMG 1718/1720 04006KT BECMG 1800/1802 14006KT PROB30 1801/1804 4000 HZ


Runway Data for OMAA
Data provided by openaviationdata.com

Runway ID Mag Var Hdg Length Elevation Surface ILS Freq ILS Id ILS Slope

Abu Dhabi International Airport, United Arab Emirates
Use only for reference purposes